createdAt,value
2022-08-09T00:01:00.463Z,100822.38
2022-08-09T00:04:03.731Z,100820.81
2022-08-09T00:06:22.870Z,100822.23
2022-08-09T00:08:53.312Z,100823.50
2022-08-09T00:11:55.038Z,100819.13
2022-08-09T00:14:21.745Z,100818.48
2022-08-09T00:16:56.890Z,100819.10
2022-08-09T00:19:27.582Z,100819.64
2022-08-09T00:21:57.147Z,100811.65
2022-08-09T00:24:27.197Z,100810.80
2022-08-09T00:26:57.327Z,100812.07
2022-08-09T00:29:39.594Z,100814.09
2022-08-09T00:32:25.689Z,100814.05
2022-08-09T00:34:56.430Z,100814.40
2022-08-09T00:37:25.585Z,100816.68
2022-08-09T00:40:12.078Z,100818.48
2022-08-09T00:44:20.323Z,100816.85
2022-08-09T00:45:35.178Z,100816.11
2022-08-09T00:48:05.781Z,100814.21
2022-08-09T00:50:37.835Z,100812.73
2022-08-09T00:53:10.116Z,100811.48
2022-08-09T00:56:04.438Z,100813.55
2022-08-09T00:58:30.656Z,100806.72
2022-08-09T01:01:00.901Z,100805.52
2022-08-09T01:03:40.850Z,100803.39
2022-08-09T01:06:25.523Z,100803.46
2022-08-09T01:09:13.688Z,100812.17
2022-08-09T01:11:59.019Z,100809.14
2022-08-09T01:14:34.621Z,100805.14
2022-08-09T01:17:11.608Z,100809.27
2022-08-09T01:20:02.310Z,100806.49
2022-08-09T01:24:03.466Z,100805.67
2022-08-09T01:26:24.865Z,100804.42
2022-08-09T01:28:57.144Z,100804.44
2022-08-09T01:32:30.801Z,100801.16
2022-08-09T01:34:22.199Z,100802.73
2022-08-09T01:36:52.498Z,100798.92
2022-08-09T01:39:23.306Z,100795.77
2022-08-09T01:41:53.639Z,100795.89
2022-08-09T01:44:28.110Z,100802.05
2022-08-09T01:46:57.701Z,100796.86
2022-08-09T01:49:39.102Z,100796.52
2022-08-09T01:52:14.520Z,100789.95
2022-08-09T01:54:45.758Z,100792.00
2022-08-09T01:57:17.315Z,100792.44
2022-08-09T01:59:53.472Z,100797.63
2022-08-09T02:02:33.208Z,100798.17
2022-08-09T02:05:15.375Z,100800.16
2022-08-09T02:08:40.053Z,100800.20
2022-08-09T02:10:41.069Z,100798.94
2022-08-09T02:13:13.949Z,100800.27
2022-08-09T02:15:50.253Z,100799.46
2022-08-09T02:18:23.597Z,100797.05
2022-08-09T02:20:58.860Z,100796.39
2022-08-09T02:23:42.767Z,100796.41
2022-08-09T02:26:26.994Z,100796.04
2022-08-09T02:28:59.990Z,100795.85
2022-08-09T02:31:34.214Z,100797.64
2022-08-09T02:34:13.844Z,100798.08
2022-08-09T02:37:03.299Z,100799.95
2022-08-09T02:39:42.821Z,100800.58
2022-08-09T02:42:18.330Z,100797.15
2022-08-09T02:44:50.246Z,100805.91
2022-08-09T02:47:22.116Z,100806.80
2022-08-09T02:50:01.360Z,100806.20
2022-08-09T02:52:37.843Z,100807.13
2022-08-09T02:55:20.102Z,100806.64
2022-08-09T02:58:00.399Z,100809.95
2022-08-09T03:00:58.093Z,100810.29
2022-08-09T03:04:05.812Z,100813.71
2022-08-09T03:06:21.420Z,100813.30
2022-08-09T03:08:53.023Z,100812.82
2022-08-09T03:12:04.757Z,100818.90
2022-08-09T03:14:13.538Z,100819.25
2022-08-09T03:16:47.755Z,100826.70
2022-08-09T03:19:59.205Z,100819.77
2022-08-09T03:22:11.850Z,100820.27
2022-08-09T03:24:52.719Z,100827.00
2022-08-09T03:27:44.692Z,100830.51
2022-08-09T03:30:33.431Z,100832.10
2022-08-09T03:33:17.289Z,100833.84
2022-08-09T03:36:13.618Z,100831.77
2022-08-09T03:38:42.446Z,100831.30
2022-08-09T03:41:15.592Z,100831.42
2022-08-09T03:44:03.535Z,100828.39
2022-08-09T03:46:35.720Z,100826.91
2022-08-09T03:49:08.744Z,100824.07
2022-08-09T03:51:43.736Z,100823.33
2022-08-09T03:54:31.132Z,100818.58
2022-08-09T03:57:04.547Z,100819.86
2022-08-09T03:59:53.277Z,100817.13
2022-08-09T04:02:27.966Z,100817.90
2022-08-09T04:05:05.055Z,100815.38
2022-08-09T04:07:52.958Z,100815.27
2022-08-09T04:10:29.099Z,100814.26
2022-08-09T04:13:01.209Z,100810.66
2022-08-09T04:16:18.613Z,100815.27
2022-08-09T04:18:22.207Z,100815.92
2022-08-09T04:20:54.442Z,100818.30
2022-08-09T04:23:25.016Z,100814.69
2022-08-09T04:25:55.637Z,100817.20
2022-08-09T04:28:34.315Z,100818.80
2022-08-09T04:31:09.457Z,100818.11
2022-08-09T04:33:52.381Z,100816.20
2022-08-09T04:36:27.269Z,100820.08
2022-08-09T04:38:59.299Z,100825.64
2022-08-09T04:41:32.856Z,100829.73
2022-08-09T04:44:06.511Z,100833.19
2022-08-09T04:46:59.062Z,100825.14
2022-08-09T04:49:53.653Z,100830.75
2022-08-09T04:52:26.982Z,100831.42
2022-08-09T04:54:58.801Z,100831.05
2022-08-09T04:57:53.767Z,100827.20
2022-08-09T05:00:18.705Z,100824.83
2022-08-09T05:02:48.605Z,100830.49
2022-08-09T05:05:32.413Z,100828.91
2022-08-09T05:08:13.847Z,100829.79
2022-08-09T05:10:45.052Z,100830.36
2022-08-09T05:13:14.582Z,100833.64
2022-08-09T05:15:52.083Z,100833.66
2022-08-09T05:18:38.009Z,100837.34
2022-08-09T05:21:23.187Z,100834.28
2022-08-09T05:24:00.883Z,100831.80
2022-08-09T05:26:36.355Z,100834.20
2022-08-09T05:29:06.412Z,100830.54
2022-08-09T05:31:45.049Z,100830.49
2022-08-09T05:34:18.070Z,100831.42
2022-08-09T05:36:47.535Z,100833.66
2022-08-09T05:39:28.811Z,100830.74
2022-08-09T05:42:01.696Z,100825.62
2022-08-09T05:44:34.847Z,100829.14
2022-08-09T05:47:05.784Z,100836.71
2022-08-09T05:50:25.930Z,100839.33
2022-08-09T05:52:24.813Z,100846.83
2022-08-09T05:54:53.784Z,100855.91
2022-08-09T05:57:25.178Z,100860.58
2022-08-09T06:00:14.672Z,100859.67
2022-08-09T06:02:46.830Z,100859.77
2022-08-09T06:05:16.319Z,100860.39
2022-08-09T06:08:04.975Z,100855.02
2022-08-09T06:10:40.077Z,100848.51
2022-08-09T06:13:18.579Z,100846.66
2022-08-09T06:15:51.753Z,100850.92
2022-08-09T06:18:24.973Z,100861.06
2022-08-09T06:20:57.607Z,100863.25
2022-08-09T06:23:58.084Z,100858.80
2022-08-09T06:26:22.405Z,100859.19
2022-08-09T06:28:59.362Z,100858.20
2022-08-09T06:31:39.173Z,100857.29
2022-08-09T06:34:09.610Z,100855.69
2022-08-09T06:36:42.877Z,100857.81
2022-08-09T06:39:13.006Z,100863.06
2022-08-09T06:42:09.122Z,100860.98
2022-08-09T06:44:32.269Z,100863.38
2022-08-09T06:47:02.298Z,100865.00
2022-08-09T06:50:11.852Z,100864.39
2022-08-09T06:52:20.253Z,100869.35
2022-08-09T06:54:54.086Z,100863.79
2022-08-09T06:57:25.897Z,100861.52
2022-08-09T07:00:49.456Z,100864.32
2022-08-09T07:03:05.981Z,100863.16
2022-08-09T07:05:58.522Z,100866.19
2022-08-09T07:08:24.861Z,100864.10
2022-08-09T07:10:54.019Z,100867.58
2022-08-09T07:13:28.266Z,100867.50
2022-08-09T07:16:42.563Z,100871.87
2022-08-09T07:18:50.159Z,100864.11
2022-08-09T07:21:19.979Z,100867.52
2022-08-09T07:23:57.711Z,100872.16
2022-08-09T07:26:28.746Z,100870.69
2022-08-09T07:29:09.264Z,100865.56
2022-08-09T07:31:45.187Z,100860.60
2022-08-09T07:34:20.517Z,100861.40
2022-08-09T07:36:50.127Z,100860.29
2022-08-09T07:39:40.452Z,100865.36
2022-08-09T07:42:10.883Z,100868.77
2022-08-09T07:44:52.043Z,100870.73
2022-08-09T07:47:23.143Z,100869.83
2022-08-09T07:50:07.959Z,100868.59
2022-08-09T07:52:40.738Z,100869.98
2022-08-09T07:55:12.317Z,100871.58
2022-08-09T07:57:46.801Z,100868.23
2022-08-09T08:00:35.412Z,100869.52
2022-08-09T08:03:08.316Z,100866.31
2022-08-09T08:05:53.646Z,100863.06
2022-08-09T08:09:02.217Z,100860.14
2022-08-09T08:12:11.321Z,100852.70
2022-08-09T08:14:04.904Z,100852.91
2022-08-09T08:16:36.002Z,100855.29
2022-08-09T08:19:08.654Z,100850.14
2022-08-09T08:21:39.496Z,100852.50
2022-08-09T08:24:11.414Z,100853.56
2022-08-09T08:26:55.099Z,100849.73
2022-08-09T08:29:27.689Z,100851.08
2022-08-09T08:32:03.182Z,100850.11
2022-08-09T08:34:34.738Z,100851.67
2022-08-09T08:37:05.993Z,100854.21
2022-08-09T08:39:44.345Z,100854.91
2022-08-09T08:42:14.036Z,100849.56
2022-08-09T08:44:46.638Z,100849.63
2022-08-09T08:47:15.823Z,100851.96
2022-08-09T08:49:46.773Z,100850.09
2022-08-09T08:52:57.457Z,100849.97
2022-08-09T08:55:10.587Z,100844.37
2022-08-09T08:57:39.582Z,100841.95
2022-08-09T09:00:17.190Z,100840.87
2022-08-09T09:03:08.799Z,100841.16
2022-08-09T09:06:00.810Z,100840.41
2022-08-09T09:08:37.865Z,100834.70
2022-08-09T09:11:13.825Z,100832.02
2022-08-09T09:13:55.188Z,100830.83
2022-08-09T09:16:31.891Z,100829.06
2022-08-09T09:22:03.663Z,100832.13
2022-08-09T09:24:37.237Z,100825.92
2022-08-09T09:27:09.739Z,100820.83
2022-08-09T09:30:13.871Z,100829.08
2022-08-09T09:33:02.626Z,100821.40
2022-08-09T09:36:00.638Z,100820.55
2022-08-09T09:38:46.566Z,100813.73
2022-08-09T09:41:49.702Z,100812.21
2022-08-09T09:44:31.516Z,100804.69
2022-08-09T09:47:07.699Z,100803.23
2022-08-09T09:50:07.075Z,100803.66
2022-08-09T09:52:35.919Z,100809.55
2022-08-09T09:55:23.845Z,100805.15
2022-08-09T09:58:16.975Z,100799.84
2022-08-09T10:00:54.707Z,100800.81
2022-08-09T10:03:57.289Z,100799.61
2022-08-09T10:06:31.944Z,100793.98
2022-08-09T10:09:21.897Z,100794.48
2022-08-09T10:12:12.020Z,100797.86
2022-08-09T10:14:48.445Z,100794.21
2022-08-09T10:17:40.004Z,100791.05
2022-08-09T10:20:32.875Z,100794.06
2022-08-09T10:23:20.268Z,100789.48
2022-08-09T10:26:06.650Z,100790.20
2022-08-09T10:28:40.134Z,100782.39
2022-08-09T10:34:10.615Z,100776.48
2022-08-09T10:36:53.834Z,100777.35
2022-08-09T10:39:28.446Z,100769.71
2022-08-09T10:41:57.982Z,100777.23
2022-08-09T10:44:30.172Z,100769.67
2022-08-09T10:48:19.450Z,100769.85
2022-08-09T10:50:31.198Z,100771.91
2022-08-09T10:53:10.327Z,100770.84
2022-08-09T10:55:58.134Z,100768.55
2022-08-09T10:58:33.665Z,100764.70
2022-08-09T11:03:06.571Z,100758.42
2022-08-09T11:04:30.968Z,100754.77
2022-08-09T11:07:57.007Z,100752.31
2022-08-09T11:10:54.359Z,100744.60
2022-08-09T11:13:54.073Z,100743.24
2022-08-09T11:16:38.250Z,100738.14
2022-08-09T11:19:10.361Z,100738.91
2022-08-09T11:22:05.515Z,100736.86
2022-08-09T11:25:08.237Z,100730.31
2022-08-09T11:28:05.637Z,100729.04
2022-08-09T11:30:35.633Z,100725.14
2022-08-09T11:33:09.589Z,100723.59
2022-08-09T11:35:50.271Z,100722.74
2022-08-09T11:38:32.015Z,100717.16
2022-08-09T11:41:27.857Z,100718.31
2022-08-09T11:44:08.162Z,100714.16
2022-08-09T11:46:54.557Z,100715.15
2022-08-09T11:50:56.995Z,100714.33
2022-08-09T11:53:44.041Z,100709.55
2022-08-09T11:56:34.377Z,100694.13
2022-08-09T11:59:23.788Z,100690.98
2022-08-09T12:02:34.483Z,100688.61
2022-08-09T12:04:58.768Z,100689.80
2022-08-09T12:07:41.200Z,100685.02
2022-08-09T12:10:31.927Z,100685.98
2022-08-09T12:13:03.669Z,100680.88
2022-08-09T12:15:52.342Z,100675.20
2022-08-09T12:18:26.219Z,100677.04
2022-08-09T12:21:02.754Z,100670.73
2022-08-09T12:23:56.216Z,100666.81
2022-08-09T12:26:25.627Z,100665.02
2022-08-09T12:29:11.408Z,100661.33
2022-08-09T12:32:02.781Z,100654.35
2022-08-09T12:34:37.734Z,100652.85
2022-08-09T12:37:24.216Z,100638.77
2022-08-09T12:40:01.790Z,100649.27
2022-08-09T12:42:31.368Z,100652.73
2022-08-09T12:45:00.831Z,100652.98
2022-08-09T12:47:32.873Z,100647.38
2022-08-09T12:50:17.231Z,100640.67
2022-08-09T12:53:17.814Z,100640.98
2022-08-09T12:56:12.653Z,100637.80
2022-08-09T12:58:28.596Z,100639.67
2022-08-09T13:00:58.316Z,100642.80
2022-08-09T13:03:57.269Z,100643.42
2022-08-09T13:06:33.959Z,100645.08
2022-08-09T13:09:10.361Z,100642.08
2022-08-09T13:11:44.036Z,100635.11
2022-08-09T13:14:43.893Z,100632.04
2022-08-09T13:17:08.421Z,100631.13
2022-08-09T13:20:11.303Z,100624.86
2022-08-09T13:22:38.314Z,100621.64
2022-08-09T13:25:15.008Z,100618.49
2022-08-09T13:27:54.471Z,100614.10
2022-08-09T13:30:50.035Z,100606.48
2022-08-09T13:33:22.966Z,100607.96
2022-08-09T13:36:37.414Z,100603.58
2022-08-09T13:38:56.556Z,100602.54
2022-08-09T13:41:59.395Z,100600.86
2022-08-09T13:44:17.755Z,100606.43
2022-08-09T13:47:29.744Z,100599.22
2022-08-09T13:49:55.716Z,100601.08
2022-08-09T13:52:25.865Z,100601.23
2022-08-09T13:55:00.588Z,100598.50
2022-08-09T13:57:40.236Z,100592.95
2022-08-09T14:00:15.556Z,100591.13
2022-08-09T14:03:03.154Z,100594.98
2022-08-09T14:06:00.033Z,100594.80
2022-08-09T14:08:23.349Z,100595.94
2022-08-09T14:10:53.501Z,100596.67
2022-08-09T14:14:14.919Z,100595.14
2022-08-09T14:16:15.367Z,100593.64
2022-08-09T14:18:49.678Z,100593.53
2022-08-09T14:21:22.574Z,100590.36
2022-08-09T14:23:56.546Z,100582.30
2022-08-09T14:26:30.597Z,100583.56
2022-08-09T14:29:07.814Z,100583.20
2022-08-09T14:31:54.867Z,100579.10
2022-08-09T14:34:31.537Z,100579.45
2022-08-09T14:37:06.920Z,100576.60
2022-08-09T14:39:46.396Z,100576.02
2022-08-09T14:42:30.530Z,100569.48
2022-08-09T14:46:45.958Z,100568.91
2022-08-09T14:48:02.374Z,100567.95
2022-08-09T14:50:34.288Z,100570.29
2022-08-09T14:53:06.157Z,100563.58
2022-08-09T14:55:35.448Z,100567.11
2022-08-09T14:58:05.317Z,100568.31
2022-08-09T15:00:36.482Z,100566.51
2022-08-09T15:03:08.787Z,100567.73
2022-08-09T15:05:39.935Z,100567.14
2022-08-09T15:08:19.409Z,100566.44
2022-08-09T15:11:00.704Z,100570.69
2022-08-09T15:13:48.133Z,100570.53
2022-08-09T15:16:22.622Z,100570.36
2022-08-09T15:18:52.279Z,100574.30
2022-08-09T15:21:56.349Z,100571.69
2022-08-09T15:24:12.996Z,100572.88
2022-08-09T15:26:46.814Z,100572.21
2022-08-09T15:30:59.980Z,100570.84
2022-08-09T15:32:06.272Z,100572.05
2022-08-09T15:34:55.388Z,100565.89
2022-08-09T15:37:57.387Z,100567.71
2022-08-09T15:40:32.321Z,100574.34
2022-08-09T15:43:02.655Z,100573.09
2022-08-09T15:46:07.382Z,100571.84
2022-08-09T15:48:28.743Z,100572.73
2022-08-09T15:50:59.668Z,100571.25
2022-08-09T15:54:03.801Z,100573.44
2022-08-09T15:56:23.400Z,100576.56
2022-08-09T15:58:58.497Z,100576.88
2022-08-09T16:01:27.451Z,100572.25
2022-08-09T16:04:00.547Z,100578.23
2022-08-09T16:06:35.435Z,100579.70
2022-08-09T16:09:06.810Z,100578.09
2022-08-09T16:11:35.717Z,100578.98
2022-08-09T16:14:08.008Z,100581.09
2022-08-09T16:16:39.078Z,100580.72
2022-08-09T16:19:13.461Z,100578.91
2022-08-09T16:21:48.515Z,100581.04
2022-08-09T16:24:29.928Z,100581.15
2022-08-09T16:27:04.975Z,100583.84
2022-08-09T16:29:38.004Z,100591.98
2022-08-09T16:32:34.463Z,100594.06
2022-08-09T16:35:05.448Z,100592.67
2022-08-09T16:37:54.756Z,100593.67
2022-08-09T16:40:39.859Z,100597.66
2022-08-09T16:43:10.429Z,100598.63
2022-08-09T16:45:43.693Z,100604.17
2022-08-09T16:48:40.748Z,100601.95
2022-08-09T16:51:08.294Z,100605.23
2022-08-09T16:54:09.029Z,100606.35
2022-08-09T16:56:32.908Z,100610.43
2022-08-09T16:59:06.702Z,100613.19
2022-08-09T17:01:43.861Z,100612.30
2022-08-09T17:04:26.019Z,100608.92
2022-08-09T17:08:40.190Z,100608.83
2022-08-09T17:09:47.806Z,100606.27
2022-08-09T17:12:18.964Z,100606.08
2022-08-09T17:14:49.930Z,100611.27
2022-08-09T17:17:27.047Z,100610.83
2022-08-09T17:20:28.496Z,100613.64
2022-08-09T17:22:50.047Z,100613.11
2022-08-09T17:25:20.181Z,100609.13
2022-08-09T17:27:53.847Z,100611.52
2022-08-09T17:30:26.407Z,100614.02
2022-08-09T17:33:04.699Z,100619.00
2022-08-09T17:35:36.033Z,100619.14
2022-08-09T17:38:13.971Z,100625.55
2022-08-09T17:40:58.962Z,100630.52
2022-08-09T17:43:33.843Z,100633.80
2022-08-09T17:46:09.133Z,100636.42
2022-08-09T17:48:40.509Z,100641.32
2022-08-09T17:51:21.932Z,100634.79
2022-08-09T17:53:54.934Z,100644.33
2022-08-09T17:56:27.885Z,100652.59
2022-08-09T17:59:00.794Z,100659.95
2022-08-09T18:02:03.430Z,100662.71
2022-08-09T18:04:20.280Z,100672.61
2022-08-09T18:06:54.487Z,100670.02
2022-08-09T18:09:40.481Z,100670.41
2022-08-09T18:12:15.039Z,100672.23
2022-08-09T18:14:49.816Z,100683.03
2022-08-09T18:17:27.599Z,100688.06
2022-08-09T18:20:54.928Z,100690.91
2022-08-09T18:23:05.755Z,100688.93
2022-08-09T18:25:50.301Z,100693.81
2022-08-09T18:30:35.571Z,100697.10
2022-08-09T18:31:13.088Z,100691.94
2022-08-09T18:33:45.197Z,100694.08
2022-08-09T18:36:32.017Z,100702.53
2022-08-09T18:39:03.260Z,100704.60
2022-08-09T18:41:34.334Z,100707.08
2022-08-09T18:44:13.275Z,100706.80
2022-08-09T18:46:51.308Z,100708.83
2022-08-09T18:49:41.667Z,100723.07
2022-08-09T18:52:13.341Z,100730.40
2022-08-09T18:54:52.635Z,100732.42
2022-08-09T18:57:23.851Z,100722.70
2022-08-09T18:59:57.639Z,100721.84
2022-08-09T19:02:30.627Z,100722.14
2022-08-09T19:05:04.313Z,100728.52
2022-08-09T19:08:04.515Z,100731.47
2022-08-09T19:10:37.882Z,100744.44
2022-08-09T19:13:16.533Z,100757.84
2022-08-09T19:15:52.843Z,100761.69
2022-08-09T19:18:33.368Z,100761.93
2022-08-09T19:21:09.604Z,100766.27
2022-08-09T19:24:32.714Z,100770.89
2022-08-09T19:26:32.606Z,100774.20
2022-08-09T19:29:15.064Z,100775.96
2022-08-09T19:31:49.402Z,100777.02
2022-08-09T19:34:24.365Z,100784.20
2022-08-09T19:36:54.856Z,100788.94
2022-08-09T19:39:28.893Z,100789.96
2022-08-09T19:42:14.635Z,100800.37
2022-08-09T19:44:49.409Z,100796.27
2022-08-09T19:47:23.721Z,100791.02
2022-08-09T19:50:09.149Z,100794.86
2022-08-09T19:52:51.902Z,100796.13
2022-08-09T19:55:25.766Z,100803.17
2022-08-09T19:58:16.743Z,100808.85
2022-08-09T20:00:46.463Z,100818.66
2022-08-09T20:04:17.373Z,100814.92
2022-08-09T20:06:05.665Z,100809.98
2022-08-09T20:08:56.745Z,100809.86
2022-08-09T20:11:27.121Z,100802.75
2022-08-09T20:14:02.910Z,100809.45
2022-08-09T20:16:50.267Z,100809.08
2022-08-09T20:19:48.424Z,100816.44
2022-08-09T20:22:14.541Z,100818.91
2022-08-09T20:24:54.061Z,100819.58
2022-08-09T20:27:23.683Z,100818.95
2022-08-09T20:29:52.639Z,100820.52
2022-08-09T20:32:30.830Z,100821.98
2022-08-09T20:35:02.334Z,100829.67
2022-08-09T20:38:19.748Z,100822.54
2022-08-09T20:40:27.185Z,100812.77
2022-08-09T20:42:59.874Z,100811.28
2022-08-09T20:45:59.800Z,100812.23
2022-08-09T20:48:21.379Z,100808.88
2022-08-09T20:50:55.800Z,100813.37
2022-08-09T20:53:37.058Z,100810.77
2022-08-09T20:56:09.346Z,100812.18
2022-08-09T20:58:54.248Z,100816.16
2022-08-09T21:01:35.351Z,100814.40
2022-08-09T21:05:52.141Z,100816.11
2022-08-09T21:07:13.240Z,100814.21
2022-08-09T21:09:56.869Z,100811.01
2022-08-09T21:15:23.881Z,100810.42
2022-08-09T21:18:21.642Z,100810.49
2022-08-09T21:20:54.496Z,100805.01
2022-08-09T21:23:36.067Z,100803.80
2022-08-09T21:26:15.410Z,100800.40
2022-08-09T21:28:51.800Z,100800.64
2022-08-09T21:31:49.137Z,100803.95
2022-08-09T21:34:21.055Z,100801.37
2022-08-09T21:36:58.050Z,100806.52
2022-08-09T21:39:28.303Z,100807.27
2022-08-09T21:42:11.688Z,100808.51
2022-08-09T21:44:42.620Z,100810.30
2022-08-09T21:47:17.548Z,100806.29
2022-08-09T21:49:47.415Z,100799.59
2022-08-09T21:52:20.278Z,100797.36
2022-08-09T21:55:03.512Z,100791.17
2022-08-09T21:57:38.815Z,100789.13
2022-08-09T22:00:31.813Z,100787.13
2022-08-09T22:03:04.614Z,100791.93
2022-08-09T22:05:37.563Z,100787.56
2022-08-09T22:08:14.807Z,100791.82
2022-08-09T22:11:04.807Z,100784.20
2022-08-09T22:13:35.640Z,100796.29
2022-08-09T22:16:08.526Z,100782.79
2022-08-09T22:18:52.180Z,100791.44
2022-08-09T22:21:24.490Z,100789.39
2022-08-09T22:23:59.025Z,100792.08
2022-08-09T22:26:35.324Z,100790.65
2022-08-09T22:29:09.126Z,100784.43
2022-08-09T22:31:50.390Z,100781.14
2022-08-09T22:34:27.074Z,100788.48
2022-08-09T22:36:57.436Z,100786.02
2022-08-09T22:39:55.383Z,100787.84
2022-08-09T22:42:22.016Z,100792.72
2022-08-09T22:48:04.533Z,100792.58
2022-08-09T22:48:12.788Z,100791.02
2022-08-09T22:50:32.062Z,100795.65
2022-08-09T22:53:03.231Z,100794.11
2022-08-09T22:56:06.314Z,100793.63
2022-08-09T22:58:33.078Z,100789.18
2022-08-09T23:01:03.698Z,100786.02
2022-08-09T23:04:05.628Z,100786.45
2022-08-09T23:06:35.430Z,100784.13
2022-08-09T23:09:07.159Z,100781.88
2022-08-09T23:11:36.210Z,100779.59
2022-08-09T23:14:09.995Z,100776.14
2022-08-09T23:16:39.383Z,100770.81
2022-08-09T23:19:08.264Z,100768.68
2022-08-09T23:21:38.545Z,100769.77
2022-08-09T23:24:09.120Z,100760.73
2022-08-09T23:26:39.141Z,100763.61
2022-08-09T23:29:10.894Z,100767.97
2022-08-09T23:31:40.314Z,100768.31
2022-08-09T23:34:09.320Z,100768.20
2022-08-09T23:36:38.295Z,100762.08
2022-08-09T23:39:07.635Z,100767.73
2022-08-09T23:41:36.680Z,100762.35
2022-08-09T23:44:05.885Z,100761.83
2022-08-09T23:46:34.760Z,100758.34
2022-08-09T23:49:03.865Z,100760.49
2022-08-09T23:51:32.652Z,100762.69
2022-08-09T23:54:02.717Z,100756.74
2022-08-09T23:56:52.833Z,100757.23
2022-08-09T23:59:23.191Z,100758.94
